• Join FlightAware (Why Join?)
  • Login
  • US Flag 
08:03AM EDT


 

Airport Tracker/Info


-or-


 

Live Flight TrackerFlight Track Log ✈ FLG4222 ✈ 25-Sep-2013 ✈ KBGM - KDTW

Flight Track Log - Related Links

Times and Time Zones

All times are in EDT time to prevent confusion due to time zone crossing. See the FLG4222 flight status page for this flight to view local times or setup timezone preferences in your user account.

Time Position Orientation Groundspeed Altitude Reporting Facility
EDT Latitude Longitude Course Direction KTS MPH feet Rate Location/Type
11:46AM 42.2708 -76.1281 296° West 263 303 5,800  Level Cleveland Center
11:47AM 42.3047 -76.2547 290° West 254 292 9,400 1,860 Climbing New York Center
11:49AM 42.3644 -76.4656 291° West 334 384 11,700 1,080 Climbing Cleveland Center
11:50AM 42.2312 -76.7592 289° West  Level Estimated
11:50AM 42.3997 -76.5950 290° West 360 414 12,600  Level Cleveland Center
11:51AM 42.4347 -76.7281 290° West 375 432 13,800 900 Climbing Cleveland Center
11:52AM 42.4717 -76.8650 290° West 388 447 14,500 840 Climbing Cleveland Center
11:53AM 42.5089 -77.0050 290° West 396 456 15,600 900 Climbing Cleveland Center
11:54AM 42.5536 -77.1764 290° West 405 466 16,400 720 Climbing Cleveland Center
11:55AM 42.5919 -77.3217 290° West 412 474 17,100 660 Climbing Cleveland Center
11:56AM 42.6300 -77.4681 290° West 415 478 17,800 780 Climbing Cleveland Center
11:57AM 42.6708 -77.6286 289° West 414 476 18,800 960 Climbing Cleveland Center
11:58AM 42.7108 -77.7775 290° West 411 473 19,800 840 Climbing Cleveland Center
11:59AM 42.7475 -77.9233 289° West 411 473 20,600 840 Climbing Cleveland Center
12:00PM 42.7897 -78.0681 292° West 411 473 21,600 900 Climbing Cleveland Center
12:01PM 42.8464 -78.2042 300° West 414 476 22,500 780 Climbing Cleveland Center
12:02PM 42.8964 -78.3417 296° West 407 468 23,300 660 Climbing Cleveland Center
12:03PM 42.8869 -78.4992 265° West 417 480 23,900 540 Climbing Cleveland Center
12:04PM 42.8742 -78.6900 265° West 424 488 24,500 480 Climbing Cleveland Center
12:05PM 42.8633 -78.8514 265° West 426 490 25,000 480 Climbing Cleveland Center
12:06PM 42.8528 -79.0150 265° West 432 497 25,500 480 Climbing Cleveland Center
12:07PM 42.8406 -79.1792 264° West 438 504 26,000 480 Climbing Cleveland Center
12:08PM 42.8292 -79.3431 265° West 438 504 26,500 480 Climbing Cleveland Center
12:09PM 42.8175 -79.5047 264° West 433 498 27,000 480 Climbing Cleveland Center
12:10PM 42.8025 -79.7011 264° West 434 499 27,600 480 Climbing Cleveland Center
12:11PM 42.7908 -79.8636 264° West 433 498 28,000 180 Climbing Cleveland Center
12:12PM 42.7775 -80.0183 263° West 441 507 28,000  Level Cleveland Center
12:13PM 42.7611 -80.2153 264° West 448 516 28,000  Level Cleveland Center
12:15PM 42.7475 -80.3886 264° West 458 527 28,000  Level Cleveland Center
12:16PM 42.7336 -80.5614 264° West 458 527 28,000 -300 Level Cleveland Center
12:17PM 42.7189 -80.7344 263° West 458 527 27,400 -780 Descending Cleveland Center
12:18PM 42.7044 -80.9042 263° West 452 520 26,400 -1,200 Descending Cleveland Center
12:19PM 42.6850 -81.0700 261° West 445 512 25,000 -1,200 Descending Cleveland Center
12:20PM 42.6675 -81.2211 261° West 407 468 24,000 -720 Descending Cleveland Center
12:21PM 42.6472 -81.3953 261° West 398 458 23,500 -1,020 Descending Cleveland Center
12:22PM 42.6419 -81.5456 267° West 399 459 22,000 -1,440 Descending Cleveland Center
12:23PM 42.6558 -81.6881 278° West 382 440 20,600 -1,320 Descending Cleveland Center
12:24PM 42.6672 -81.8064 277° West 357 411 19,300 -1,440 Descending Cleveland Center
12:25PM 42.6833 -81.9564 278° West 338 389 17,700 -1,440 Descending Cleveland Center
12:26PM 42.6931 -82.0786 276° West 329 379 16,400 -1,200 Descending Cleveland Center
12:27PM 42.6767 -82.1911 259° West 320 368 15,300 -1,140 Descending Cleveland Center
12:28PM 42.6444 -82.2664 240° Southwest 330 380 14,500 -1,080 Descending Cleveland Center
12:28PM 42.6275 -82.2944 231° Southwest 323 372 14,200 -1,140 Descending Cleveland Center
12:29PM 42.5761 -82.4081 238° Southwest 322 371 13,000 -1,080 Descending Cleveland Center
12:29PM 42.5786 -82.3967 73° East 324 373 13,100 -1,020 Climbing Cleveland Center
12:30PM 42.5297 -82.5042 238° Southwest 309 356 12,000 -1,080 Descending Cleveland Center
12:30PM 42.5219 -82.5142 223° Southwest 314 361 12,000 -480 Level Cleveland Center
12:31PM 42.4803 -82.6161 241° Southwest 312 359 11,500 -840 Descending Cleveland Center
12:32PM 42.4450 -82.7250 246° West 298 343 10,300 -1,200 Descending Cleveland Center
12:32PM 42.4450 -82.7206 90° East 309 356 10,300 -1,800 Level Cleveland Center
12:33PM 42.4108 -82.8194 245° Southwest 268 308 8,500 -1,620 Descending Cleveland Center
12:33PM 42.4117 -82.8119 81° East 282 325 8,600 -1,500 Climbing Cleveland Center
12:34PM 42.3803 -82.8944 243° Southwest 238 274 7,100 -1,500 Descending Cleveland Center
12:34PM 42.3803 -82.8950 270° West 257 296 7,100 -120 Level Cleveland Center
12:35PM 42.3558 -82.9675 245° Southwest 217 250 7,000 -120 Descending Cleveland Center
12:35PM 42.3536 -82.9628 122° Southeast 226 260 7,000 -240 Level Cleveland Center
12:36PM 42.4006 -83.0158 320° Northwest 213 245 6,800 -300 Descending Cleveland Center
12:36PM 42.4019 -83.0131 56° Northeast 216 249 6,700 -840 Descending Cleveland Center
12:37PM 42.4569 -82.9897 17° North 219 252 6,000 -720 Descending Cleveland Center
12:37PM 42.4594 -82.9869 39° Northeast 219 252 6,000  Level Cleveland Center
12:38PM 42.4939 -83.0569 304° West 221 254 6,000  Level Cleveland Center
12:38PM 42.4917 -83.0572 185° South 225 259 6,000  Level Cleveland Center
12:39PM 42.4847 -83.1317 263° West 218 251 6,000 -180 Level Cleveland Center
12:40PM 42.4369 -83.1708 211° Southwest 188 216 5,700 -300 Descending Cleveland Center
12:40PM 42.4386 -83.1689 41° Northeast 197 227 5,700 -960 Level Cleveland Center
12:41PM 42.3922 -83.2039 209° Southwest 188 216 4,600 -1,140 Descending Cleveland Center
12:42PM 42.3400 -83.2444 210° Southwest 183 211 3,400 -1,020 Descending Cleveland Center
12:43PM 42.2992 -83.2739 208° Southwest 173 199 2,600 -900 Descending Cleveland Center
12:44PM 42.2614 -83.3017 209° Southwest 151 174 1,700 -900 Descending Cleveland Center
12:45PM 42.2611 -83.3017 180° South 163 188 1,700 -840 Level Cleveland Center
12:45PM 42.2256 -83.3303 211° Southwest 144 166 900 -720 Descending Cleveland Center
12:46PM 42.2228 -83.3311 193° South 154 177 1,000 840 Climbing Cleveland Center